sensor_id;sensor_type;location;lat;lon;timestamp;P1;durP1;ratioP1;P2;durP2;ratioP2
70049;SDS011;57391;51.306;22.680;2023-08-24T00:01:57;10.30;;;5.50;;
70049;SDS011;57391;51.306;22.680;2023-08-24T00:04:24;8.90;;;5.20;;
70049;SDS011;57391;51.306;22.680;2023-08-24T00:06:50;8.60;;;5.10;;
70049;SDS011;57391;51.306;22.680;2023-08-24T00:09:18;11.00;;;5.40;;
70049;SDS011;57391;51.306;22.680;2023-08-24T00:11:45;9.70;;;4.70;;
70049;SDS011;57391;51.306;22.680;2023-08-24T00:14:12;9.20;;;5.50;;
70049;SDS011;57391;51.306;22.680;2023-08-24T00:16:39;10.20;;;4.80;;
70049;SDS011;57391;51.306;22.680;2023-08-24T00:19:07;8.30;;;5.00;;
70049;SDS011;57391;51.306;22.680;2023-08-24T00:21:34;10.50;;;5.10;;
70049;SDS011;57391;51.306;22.680;2023-08-24T00:24:00;10.90;;;5.60;;
70049;SDS011;57391;51.306;22.680;2023-08-24T00:26:27;9.30;;;5.30;;
70049;SDS011;57391;51.306;22.680;2023-08-24T00:28:55;10.00;;;5.40;;
70049;SDS011;57391;51.306;22.680;2023-08-24T00:31:22;12.20;;;5.50;;
70049;SDS011;57391;51.306;22.680;2023-08-24T00:33:48;9.80;;;5.30;;
70049;SDS011;57391;51.306;22.680;2023-08-24T00:36:17;8.70;;;5.20;;
70049;SDS011;57391;51.306;22.680;2023-08-24T00:38:48;9.70;;;5.30;;
70049;SDS011;57391;51.306;22.680;2023-08-24T00:41:17;8.20;;;5.40;;
70049;SDS011;57391;51.306;22.680;2023-08-24T00:43:44;9.70;;;5.00;;
70049;SDS011;57391;51.306;22.680;2023-08-24T00:46:13;11.00;;;5.50;;
70049;SDS011;57391;51.306;22.680;2023-08-24T00:48:40;12.50;;;6.10;;
70049;SDS011;57391;51.306;22.680;2023-08-24T00:51:07;12.10;;;5.60;;
70049;SDS011;57391;51.306;22.680;2023-08-24T00:53:34;9.90;;;5.90;;
70049;SDS011;57391;51.306;22.680;2023-08-24T00:56:03;13.20;;;6.50;;
70049;SDS011;57391;51.306;22.680;2023-08-24T00:58:32;11.30;;;6.20;;
70049;SDS011;57391;51.306;22.680;2023-08-24T01:01:00;12.40;;;6.60;;
70049;SDS011;57391;51.306;22.680;2023-08-24T01:03:28;14.10;;;7.00;;
70049;SDS011;57391;51.306;22.680;2023-08-24T01:05:54;10.70;;;6.60;;
70049;SDS011;57391;51.306;22.680;2023-08-24T01:08:21;11.60;;;6.20;;
70049;SDS011;57391;51.306;22.680;2023-08-24T01:13:45;12.20;;;6.70;;
70049;SDS011;57391;51.306;22.680;2023-08-24T01:16:19;12.70;;;7.10;;
70049;SDS011;57391;51.306;22.680;2023-08-24T01:18:58;16.30;;;7.10;;
70049;SDS011;57391;51.306;22.680;2023-08-24T01:21:26;11.90;;;6.80;;
70049;SDS011;57391;51.306;22.680;2023-08-24T01:24:18;12.30;;;6.80;;
70049;SDS011;57391;51.306;22.680;2023-08-24T01:26:59;13.10;;;7.20;;
70049;SDS011;57391;51.306;22.680;2023-08-24T01:29:27;13.20;;;6.70;;
70049;SDS011;57391;51.306;22.680;2023-08-24T01:31:54;14.00;;;6.80;;
70049;SDS011;57391;51.306;22.680;2023-08-24T01:34:21;11.80;;;6.40;;
70049;SDS011;57391;51.306;22.680;2023-08-24T01:36:48;12.30;;;6.90;;
70049;SDS011;57391;51.306;22.680;2023-08-24T01:39:41;13.60;;;6.80;;
70049;SDS011;57391;51.306;22.680;2023-08-24T01:42:10;10.40;;;6.70;;
70049;SDS011;57391;51.306;22.680;2023-08-24T01:44:49;14.60;;;6.80;;
70049;SDS011;57391;51.306;22.680;2023-08-24T01:47:19;12.20;;;6.90;;
70049;SDS011;57391;51.306;22.680;2023-08-24T01:49:48;12.80;;;7.50;;
70049;SDS011;57391;51.306;22.680;2023-08-24T01:52:15;11.80;;;6.70;;
70049;SDS011;57391;51.306;22.680;2023-08-24T01:54:43;13.50;;;7.10;;
70049;SDS011;57391;51.306;22.680;2023-08-24T01:57:10;12.80;;;7.00;;
70049;SDS011;57391;51.306;22.680;2023-08-24T01:59:38;12.20;;;6.80;;
70049;SDS011;57391;51.306;22.680;2023-08-24T02:02:05;11.50;;;6.90;;
70049;SDS011;57391;51.306;22.680;2023-08-24T02:04:32;11.70;;;6.60;;
70049;SDS011;57391;51.306;22.680;2023-08-24T02:06:59;15.40;;;6.80;;
70049;SDS011;57391;51.306;22.680;2023-08-24T02:09:26;12.10;;;6.70;;
70049;SDS011;57391;51.306;22.680;2023-08-24T02:11:53;11.70;;;7.50;;
70049;SDS011;57391;51.306;22.680;2023-08-24T02:14:20;19.00;;;9.40;;
70049;SDS011;57391;51.306;22.680;2023-08-24T02:16:46;15.30;;;8.10;;
70049;SDS011;57391;51.306;22.680;2023-08-24T02:19:13;13.40;;;8.40;;
70049;SDS011;57391;51.306;22.680;2023-08-24T02:21:40;17.20;;;9.40;;
70049;SDS011;57391;51.306;22.680;2023-08-24T02:24:07;15.70;;;8.90;;
70049;SDS011;57391;51.306;22.680;2023-08-24T02:26:34;16.60;;;9.00;;
70049;SDS011;57391;51.306;22.680;2023-08-24T02:29:01;13.90;;;8.70;;
70049;SDS011;57391;51.306;22.680;2023-08-24T02:31:27;17.10;;;8.90;;
70049;SDS011;57391;51.306;22.680;2023-08-24T02:33:56;15.40;;;8.40;;
70049;SDS011;57391;51.306;22.680;2023-08-24T02:36:23;16.30;;;8.60;;
70049;SDS011;57391;51.306;22.680;2023-08-24T02:38:49;18.50;;;8.90;;
70049;SDS011;57391;51.306;22.680;2023-08-24T02:41:18;13.90;;;8.40;;
70049;SDS011;57391;51.306;22.680;2023-08-24T02:43:45;13.00;;;7.90;;
70049;SDS011;57391;51.306;22.680;2023-08-24T02:46:12;15.70;;;7.50;;
70049;SDS011;57391;51.306;22.680;2023-08-24T02:48:39;15.50;;;7.90;;
70049;SDS011;57391;51.306;22.680;2023-08-24T02:51:07;14.60;;;7.40;;
70049;SDS011;57391;51.306;22.680;2023-08-24T02:53:37;14.90;;;7.00;;
70049;SDS011;57391;51.306;22.680;2023-08-24T02:56:03;14.60;;;7.60;;
70049;SDS011;57391;51.306;22.680;2023-08-24T02:58:31;13.30;;;7.30;;
70049;SDS011;57391;51.306;22.680;2023-08-24T03:00:58;13.90;;;6.60;;
70049;SDS011;57391;51.306;22.680;2023-08-24T03:03:25;13.60;;;7.50;;
70049;SDS011;57391;51.306;22.680;2023-08-24T03:05:56;11.90;;;7.20;;
70049;SDS011;57391;51.306;22.680;2023-08-24T03:08:28;12.60;;;7.10;;
70049;SDS011;57391;51.306;22.680;2023-08-24T03:10:56;14.30;;;7.60;;
70049;SDS011;57391;51.306;22.680;2023-08-24T03:13:24;12.60;;;7.10;;
70049;SDS011;57391;51.306;22.680;2023-08-24T03:15:52;10.70;;;6.30;;
70049;SDS011;57391;51.306;22.680;2023-08-24T03:18:19;13.70;;;7.40;;
70049;SDS011;57391;51.306;22.680;2023-08-24T03:20:48;10.50;;;6.50;;
70049;SDS011;57391;51.306;22.680;2023-08-24T03:23:16;11.20;;;6.40;;
70049;SDS011;57391;51.306;22.680;2023-08-24T03:25:43;12.20;;;7.00;;
70049;SDS011;57391;51.306;22.680;2023-08-24T03:28:11;14.40;;;7.20;;
70049;SDS011;57391;51.306;22.680;2023-08-24T03:30:44;11.40;;;6.80;;
70049;SDS011;57391;51.306;22.680;2023-08-24T03:33:14;14.10;;;6.60;;
70049;SDS011;57391;51.306;22.680;2023-08-24T03:35:41;12.70;;;7.20;;
70049;SDS011;57391;51.306;22.680;2023-08-24T03:38:08;11.60;;;6.90;;
70049;SDS011;57391;51.306;22.680;2023-08-24T03:40:36;12.70;;;7.20;;
70049;SDS011;57391;51.306;22.680;2023-08-24T03:43:03;13.80;;;6.90;;
70049;SDS011;57391;51.306;22.680;2023-08-24T03:45:31;11.20;;;6.30;;
70049;SDS011;57391;51.306;22.680;2023-08-24T03:47:58;11.70;;;7.00;;
70049;SDS011;57391;51.306;22.680;2023-08-24T03:50:26;9.80;;;6.50;;
70049;SDS011;57391;51.306;22.680;2023-08-24T03:52:54;11.60;;;6.70;;
70049;SDS011;57391;51.306;22.680;2023-08-24T03:55:21;11.10;;;6.60;;
70049;SDS011;57391;51.306;22.680;2023-08-24T03:57:49;11.90;;;6.60;;
70049;SDS011;57391;51.306;22.680;2023-08-24T04:00:16;11.90;;;6.50;;
70049;SDS011;57391;51.306;22.680;2023-08-24T04:02:44;10.60;;;7.20;;
70049;SDS011;57391;51.306;22.680;2023-08-24T04:05:17;12.50;;;7.00;;
70049;SDS011;57391;51.306;22.680;2023-08-24T04:07:44;11.00;;;6.80;;
70049;SDS011;57391;51.306;22.680;2023-08-24T04:10:11;14.00;;;6.60;;
70049;SDS011;57391;51.306;22.680;2023-08-24T04:12:37;11.90;;;6.60;;
70049;SDS011;57391;51.306;22.680;2023-08-24T04:15:05;14.30;;;7.30;;
70049;SDS011;57391;51.306;22.680;2023-08-24T04:17:32;10.70;;;6.20;;
70049;SDS011;57391;51.306;22.680;2023-08-24T04:19:59;12.40;;;6.90;;
70049;SDS011;57391;51.306;22.680;2023-08-24T04:22:25;11.20;;;6.80;;
70049;SDS011;57391;51.306;22.680;2023-08-24T04:24:52;11.30;;;6.90;;
70049;SDS011;57391;51.306;22.680;2023-08-24T04:27:19;14.50;;;6.90;;
70049;SDS011;57391;51.306;22.680;2023-08-24T04:29:46;11.00;;;6.70;;
70049;SDS011;57391;51.306;22.680;2023-08-24T04:32:13;10.50;;;6.80;;
70049;SDS011;57391;51.306;22.680;2023-08-24T04:34:40;9.80;;;6.30;;
70049;SDS011;57391;51.306;22.680;2023-08-24T04:37:06;12.10;;;6.40;;
70049;SDS011;57391;51.306;22.680;2023-08-24T04:39:33;14.40;;;8.50;;
70049;SDS011;57391;51.306;22.680;2023-08-24T04:42:00;11.20;;;6.60;;
70049;SDS011;57391;51.306;22.680;2023-08-24T04:44:28;11.20;;;6.50;;
70049;SDS011;57391;51.306;22.680;2023-08-24T04:46:55;13.20;;;6.80;;
70049;SDS011;57391;51.306;22.680;2023-08-24T04:49:22;9.30;;;6.30;;
70049;SDS011;57391;51.306;22.680;2023-08-24T04:51:49;13.50;;;7.30;;
70049;SDS011;57391;51.306;22.680;2023-08-24T04:54:16;13.40;;;6.80;;
70049;SDS011;57391;51.306;22.680;2023-08-24T04:56:43;13.90;;;7.40;;
70049;SDS011;57391;51.306;22.680;2023-08-24T04:59:10;11.70;;;7.60;;
70049;SDS011;57391;51.306;22.680;2023-08-24T05:01:37;14.00;;;6.80;;
70049;SDS011;57391;51.306;22.680;2023-08-24T05:04:03;13.50;;;7.30;;
70049;SDS011;57391;51.306;22.680;2023-08-24T05:06:30;12.00;;;7.10;;
70049;SDS011;57391;51.306;22.680;2023-08-24T05:08:57;17.00;;;8.90;;
70049;SDS011;57391;51.306;22.680;2023-08-24T05:11:26;13.70;;;9.00;;
70049;SDS011;57391;51.306;22.680;2023-08-24T05:13:56;17.40;;;11.00;;
70049;SDS011;57391;51.306;22.680;2023-08-24T05:16:23;15.80;;;9.60;;
70049;SDS011;57391;51.306;22.680;2023-08-24T05:18:50;16.00;;;7.90;;
70049;SDS011;57391;51.306;22.680;2023-08-24T05:21:16;13.90;;;8.20;;
70049;SDS011;57391;51.306;22.680;2023-08-24T05:23:43;14.10;;;8.40;;
70049;SDS011;57391;51.306;22.680;2023-08-24T05:26:10;13.10;;;8.40;;
70049;SDS011;57391;51.306;22.680;2023-08-24T05:28:37;13.60;;;7.60;;
70049;SDS011;57391;51.306;22.680;2023-08-24T05:31:04;12.20;;;7.50;;
70049;SDS011;57391;51.306;22.680;2023-08-24T05:33:31;15.20;;;7.60;;
70049;SDS011;57391;51.306;22.680;2023-08-24T05:35:59;14.00;;;9.00;;
70049;SDS011;57391;51.306;22.680;2023-08-24T05:38:26;14.10;;;9.10;;
70049;SDS011;57391;51.306;22.680;2023-08-24T05:40:53;16.00;;;8.80;;
70049;SDS011;57391;51.306;22.680;2023-08-24T05:43:20;14.10;;;8.20;;
70049;SDS011;57391;51.306;22.680;2023-08-24T05:45:50;15.40;;;7.40;;
70049;SDS011;57391;51.306;22.680;2023-08-24T05:48:17;12.70;;;6.80;;
70049;SDS011;57391;51.306;22.680;2023-08-24T05:50:45;14.30;;;6.90;;
70049;SDS011;57391;51.306;22.680;2023-08-24T05:53:13;13.10;;;6.70;;
70049;SDS011;57391;51.306;22.680;2023-08-24T05:55:41;13.60;;;6.70;;
70049;SDS011;57391;51.306;22.680;2023-08-24T05:58:08;13.70;;;6.70;;
70049;SDS011;57391;51.306;22.680;2023-08-24T06:00:35;12.20;;;6.80;;
70049;SDS011;57391;51.306;22.680;2023-08-24T06:03:02;11.30;;;6.50;;
70049;SDS011;57391;51.306;22.680;2023-08-24T06:05:30;11.40;;;6.20;;
70049;SDS011;57391;51.306;22.680;2023-08-24T06:07:57;11.70;;;6.70;;
70049;SDS011;57391;51.306;22.680;2023-08-24T06:10:25;14.40;;;6.40;;
70049;SDS011;57391;51.306;22.680;2023-08-24T06:12:53;11.90;;;6.30;;
70049;SDS011;57391;51.306;22.680;2023-08-24T06:15:19;11.80;;;6.40;;
70049;SDS011;57391;51.306;22.680;2023-08-24T06:17:50;12.30;;;6.20;;
70049;SDS011;57391;51.306;22.680;2023-08-24T06:20:17;11.80;;;5.80;;
70049;SDS011;57391;51.306;22.680;2023-08-24T06:22:44;10.40;;;5.70;;
70049;SDS011;57391;51.306;22.680;2023-08-24T06:25:11;10.00;;;5.50;;
70049;SDS011;57391;51.306;22.680;2023-08-24T06:27:38;10.60;;;5.50;;
70049;SDS011;57391;51.306;22.680;2023-08-24T06:30:05;9.80;;;4.80;;
70049;SDS011;57391;51.306;22.680;2023-08-24T06:32:33;6.70;;;3.90;;
70049;SDS011;57391;51.306;22.680;2023-08-24T06:35:00;13.70;;;4.70;;
70049;SDS011;57391;51.306;22.680;2023-08-24T06:37:27;8.00;;;4.70;;
70049;SDS011;57391;51.306;22.680;2023-08-24T06:39:54;9.20;;;4.20;;
70049;SDS011;57391;51.306;22.680;2023-08-24T06:42:21;9.60;;;4.10;;
70049;SDS011;57391;51.306;22.680;2023-08-24T06:44:48;7.80;;;4.20;;
70049;SDS011;57391;51.306;22.680;2023-08-24T06:47:17;7.60;;;4.10;;
70049;SDS011;57391;51.306;22.680;2023-08-24T06:49:44;7.00;;;3.10;;
70049;SDS011;57391;51.306;22.680;2023-08-24T06:52:11;8.20;;;3.60;;
70049;SDS011;57391;51.306;22.680;2023-08-24T06:54:38;7.50;;;3.10;;
70049;SDS011;57391;51.306;22.680;2023-08-24T06:57:05;6.20;;;3.00;;
70049;SDS011;57391;51.306;22.680;2023-08-24T06:59:32;5.70;;;2.60;;
70049;SDS011;57391;51.306;22.680;2023-08-24T07:01:59;6.80;;;2.90;;
70049;SDS011;57391;51.306;22.680;2023-08-24T07:04:26;9.40;;;3.10;;
70049;SDS011;57391;51.306;22.680;2023-08-24T07:06:54;8.70;;;3.40;;
70049;SDS011;57391;51.306;22.680;2023-08-24T07:09:21;6.50;;;3.10;;
70049;SDS011;57391;51.306;22.680;2023-08-24T07:11:48;6.60;;;3.10;;
70049;SDS011;57391;51.306;22.680;2023-08-24T07:14:15;9.00;;;3.30;;
70049;SDS011;57391;51.306;22.680;2023-08-24T07:16:42;8.60;;;3.20;;
70049;SDS011;57391;51.306;22.680;2023-08-24T07:19:09;6.80;;;3.20;;
70049;SDS011;57391;51.306;22.680;2023-08-24T07:21:36;8.40;;;3.10;;
70049;SDS011;57391;51.306;22.680;2023-08-24T07:24:03;8.10;;;2.90;;
70049;SDS011;57391;51.306;22.680;2023-08-24T07:26:31;7.70;;;3.30;;
70049;SDS011;57391;51.306;22.680;2023-08-24T07:28:59;6.80;;;2.90;;
70049;SDS011;57391;51.306;22.680;2023-08-24T07:31:26;6.70;;;2.90;;
70049;SDS011;57391;51.306;22.680;2023-08-24T07:33:53;7.00;;;3.20;;
70049;SDS011;57391;51.306;22.680;2023-08-24T07:36:20;5.40;;;2.30;;
70049;SDS011;57391;51.306;22.680;2023-08-24T07:38:46;5.30;;;2.30;;
70049;SDS011;57391;51.306;22.680;2023-08-24T07:41:14;5.60;;;2.20;;
70049;SDS011;57391;51.306;22.680;2023-08-24T07:43:41;7.50;;;2.50;;
70049;SDS011;57391;51.306;22.680;2023-08-24T07:46:08;5.10;;;2.50;;
70049;SDS011;57391;51.306;22.680;2023-08-24T07:48:35;5.50;;;2.30;;
70049;SDS011;57391;51.306;22.680;2023-08-24T07:51:02;5.60;;;2.50;;
70049;SDS011;57391;51.306;22.680;2023-08-24T07:53:30;7.70;;;2.40;;
70049;SDS011;57391;51.306;22.680;2023-08-24T07:56:00;5.00;;;2.00;;
70049;SDS011;57391;51.306;22.680;2023-08-24T07:58:27;4.80;;;2.00;;
70049;SDS011;57391;51.306;22.680;2023-08-24T08:00:54;4.80;;;2.20;;
70049;SDS011;57391;51.306;22.680;2023-08-24T08:03:22;3.50;;;1.90;;
70049;SDS011;57391;51.306;22.680;2023-08-24T08:05:49;3.90;;;1.90;;
70049;SDS011;57391;51.306;22.680;2023-08-24T08:08:16;4.50;;;2.00;;
70049;SDS011;57391;51.306;22.680;2023-08-24T08:10:43;3.90;;;2.00;;
70049;SDS011;57391;51.306;22.680;2023-08-24T08:13:10;4.40;;;1.90;;
70049;SDS011;57391;51.306;22.680;2023-08-24T08:15:38;3.60;;;1.90;;
70049;SDS011;57391;51.306;22.680;2023-08-24T08:18:05;4.50;;;2.00;;
70049;SDS011;57391;51.306;22.680;2023-08-24T08:20:32;6.30;;;2.10;;
70049;SDS011;57391;51.306;22.680;2023-08-24T08:22:59;6.10;;;1.90;;
70049;SDS011;57391;51.306;22.680;2023-08-24T08:25:27;5.10;;;1.90;;
70049;SDS011;57391;51.306;22.680;2023-08-24T08:27:54;3.90;;;1.90;;
70049;SDS011;57391;51.306;22.680;2023-08-24T08:30:21;6.00;;;2.20;;
70049;SDS011;57391;51.306;22.680;2023-08-24T08:32:48;4.60;;;1.90;;
70049;SDS011;57391;51.306;22.680;2023-08-24T08:35:18;4.60;;;2.00;;
70049;SDS011;57391;51.306;22.680;2023-08-24T08:37:45;4.70;;;1.90;;
70049;SDS011;57391;51.306;22.680;2023-08-24T08:40:12;3.60;;;1.80;;
70049;SDS011;57391;51.306;22.680;2023-08-24T08:42:40;6.60;;;2.20;;
70049;SDS011;57391;51.306;22.680;2023-08-24T08:45:10;3.40;;;1.80;;
70049;SDS011;57391;51.306;22.680;2023-08-24T08:47:38;8.40;;;2.20;;
70049;SDS011;57391;51.306;22.680;2023-08-24T08:50:07;3.70;;;1.70;;
70049;SDS011;57391;51.306;22.680;2023-08-24T08:52:36;4.00;;;1.80;;
70049;SDS011;57391;51.306;22.680;2023-08-24T08:55:03;5.10;;;1.90;;
70049;SDS011;57391;51.306;22.680;2023-08-24T08:57:32;4.70;;;2.10;;
70049;SDS011;57391;51.306;22.680;2023-08-24T09:00:00;3.40;;;1.80;;
70049;SDS011;57391;51.306;22.680;2023-08-24T09:02:29;4.30;;;1.80;;
70049;SDS011;57391;51.306;22.680;2023-08-24T09:04:58;4.70;;;1.90;;
70049;SDS011;57391;51.306;22.680;2023-08-24T09:07:25;2.90;;;1.70;;
70049;SDS011;57391;51.306;22.680;2023-08-24T09:09:52;3.50;;;1.60;;
70049;SDS011;57391;51.306;22.680;2023-08-24T09:12:19;5.90;;;1.90;;
70049;SDS011;57391;51.306;22.680;2023-08-24T09:14:46;5.10;;;1.70;;
70049;SDS011;57391;51.306;22.680;2023-08-24T09:17:22;4.40;;;1.90;;
70049;SDS011;57391;51.306;22.680;2023-08-24T09:19:50;3.40;;;1.70;;
70049;SDS011;57391;51.306;22.680;2023-08-24T09:22:23;5.40;;;1.80;;
70049;SDS011;57391;51.306;22.680;2023-08-24T09:24:50;4.30;;;1.60;;
70049;SDS011;57391;51.306;22.680;2023-08-24T09:27:19;4.70;;;1.90;;
70049;SDS011;57391;51.306;22.680;2023-08-24T09:29:48;4.00;;;1.80;;
70049;SDS011;57391;51.306;22.680;2023-08-24T09:32:30;3.30;;;1.70;;
70049;SDS011;57391;51.306;22.680;2023-08-24T09:35:06;4.80;;;1.70;;
70049;SDS011;57391;51.306;22.680;2023-08-24T09:37:35;3.70;;;1.60;;
70049;SDS011;57391;51.306;22.680;2023-08-24T09:40:05;4.00;;;2.00;;
70049;SDS011;57391;51.306;22.680;2023-08-24T09:42:42;4.20;;;2.00;;
70049;SDS011;57391;51.306;22.680;2023-08-24T09:45:13;3.90;;;2.00;;
70049;SDS011;57391;51.306;22.680;2023-08-24T09:47:50;4.20;;;2.00;;
70049;SDS011;57391;51.306;22.680;2023-08-24T09:50:21;4.10;;;1.80;;
70049;SDS011;57391;51.306;22.680;2023-08-24T09:52:51;3.60;;;2.00;;
70049;SDS011;57391;51.306;22.680;2023-08-24T09:55:20;3.70;;;1.80;;
70049;SDS011;57391;51.306;22.680;2023-08-24T09:57:53;6.20;;;2.20;;
70049;SDS011;57391;51.306;22.680;2023-08-24T10:00:21;5.60;;;2.30;;
70049;SDS011;57391;51.306;22.680;2023-08-24T10:02:52;6.50;;;2.20;;
70049;SDS011;57391;51.306;22.680;2023-08-24T10:05:21;5.00;;;2.00;;
70049;SDS011;57391;51.306;22.680;2023-08-24T10:07:54;5.00;;;2.00;;
70049;SDS011;57391;51.306;22.680;2023-08-24T10:10:25;4.40;;;1.80;;
70049;SDS011;57391;51.306;22.680;2023-08-24T10:12:59;5.30;;;2.30;;
70049;SDS011;57391;51.306;22.680;2023-08-24T10:15:31;5.20;;;2.40;;
70049;SDS011;57391;51.306;22.680;2023-08-24T10:18:01;4.50;;;2.00;;
70049;SDS011;57391;51.306;22.680;2023-08-24T10:20:28;4.00;;;2.20;;
70049;SDS011;57391;51.306;22.680;2023-08-24T10:22:57;5.00;;;1.90;;
70049;SDS011;57391;51.306;22.680;2023-08-24T10:25:25;3.80;;;2.10;;
70049;SDS011;57391;51.306;22.680;2023-08-24T10:27:53;5.50;;;2.10;;
70049;SDS011;57391;51.306;22.680;2023-08-24T10:30:21;6.00;;;2.50;;
70049;SDS011;57391;51.306;22.680;2023-08-24T10:32:51;6.70;;;2.50;;
70049;SDS011;57391;51.306;22.680;2023-08-24T10:35:20;4.20;;;2.20;;
70049;SDS011;57391;51.306;22.680;2023-08-24T10:37:52;4.40;;;2.30;;
70049;SDS011;57391;51.306;22.680;2023-08-24T10:40:33;5.30;;;2.30;;
70049;SDS011;57391;51.306;22.680;2023-08-24T10:43:04;4.80;;;2.30;;
70049;SDS011;57391;51.306;22.680;2023-08-24T10:46:00;4.60;;;2.40;;
70049;SDS011;57391;51.306;22.680;2023-08-24T10:49:18;4.30;;;2.10;;
70049;SDS011;57391;51.306;22.680;2023-08-24T10:51:23;4.80;;;2.40;;
70049;SDS011;57391;51.306;22.680;2023-08-24T10:53:57;4.70;;;2.20;;
70049;SDS011;57391;51.306;22.680;2023-08-24T10:56:40;6.50;;;2.30;;
70049;SDS011;57391;51.306;22.680;2023-08-24T10:59:19;4.90;;;2.10;;
70049;SDS011;57391;51.306;22.680;2023-08-24T11:04:19;4.60;;;2.40;;
70049;SDS011;57391;51.306;22.680;2023-08-24T11:09:26;5.40;;;2.10;;
70049;SDS011;57391;51.306;22.680;2023-08-24T11:12:11;5.70;;;2.00;;
70049;SDS011;57391;51.306;22.680;2023-08-24T11:14:52;4.50;;;2.10;;
70049;SDS011;57391;51.306;22.680;2023-08-24T11:17:29;3.80;;;2.00;;
70049;SDS011;57391;51.306;22.680;2023-08-24T11:20:00;5.80;;;2.10;;
70049;SDS011;57391;51.306;22.680;2023-08-24T11:22:27;4.20;;;2.20;;
70049;SDS011;57391;51.306;22.680;2023-08-24T11:24:54;4.40;;;2.10;;
70049;SDS011;57391;51.306;22.680;2023-08-24T11:27:21;4.00;;;2.00;;
70049;SDS011;57391;51.306;22.680;2023-08-24T11:29:58;4.70;;;2.10;;
70049;SDS011;57391;51.306;22.680;2023-08-24T11:32:26;5.80;;;2.10;;
70049;SDS011;57391;51.306;22.680;2023-08-24T11:34:54;5.50;;;2.00;;
70049;SDS011;57391;51.306;22.680;2023-08-24T11:37:21;4.50;;;1.90;;
70049;SDS011;57391;51.306;22.680;2023-08-24T11:39:48;4.80;;;2.10;;
70049;SDS011;57391;51.306;22.680;2023-08-24T11:42:15;5.00;;;2.00;;
70049;SDS011;57391;51.306;22.680;2023-08-24T11:44:46;5.00;;;2.10;;
70049;SDS011;57391;51.306;22.680;2023-08-24T11:47:15;4.80;;;2.10;;
70049;SDS011;57391;51.306;22.680;2023-08-24T11:49:42;4.30;;;2.10;;
70049;SDS011;57391;51.306;22.680;2023-08-24T11:52:09;3.60;;;1.90;;
70049;SDS011;57391;51.306;22.680;2023-08-24T11:54:36;5.00;;;2.10;;
70049;SDS011;57391;51.306;22.680;2023-08-24T11:57:06;4.90;;;2.20;;
70049;SDS011;57391;51.306;22.680;2023-08-24T11:59:36;3.60;;;2.10;;
70049;SDS011;57391;51.306;22.680;2023-08-24T12:02:05;4.10;;;2.10;;
70049;SDS011;57391;51.306;22.680;2023-08-24T12:04:42;4.60;;;2.10;;
70049;SDS011;57391;51.306;22.680;2023-08-24T12:07:12;4.30;;;2.10;;
70049;SDS011;57391;51.306;22.680;2023-08-24T12:09:40;5.60;;;2.10;;
70049;SDS011;57391;51.306;22.680;2023-08-24T12:12:14;3.20;;;1.90;;
70049;SDS011;57391;51.306;22.680;2023-08-24T12:14:46;4.10;;;2.10;;
70049;SDS011;57391;51.306;22.680;2023-08-24T12:17:15;4.20;;;1.90;;
70049;SDS011;57391;51.306;22.680;2023-08-24T12:19:44;5.30;;;2.00;;
70049;SDS011;57391;51.306;22.680;2023-08-24T12:22:15;3.10;;;1.90;;
70049;SDS011;57391;51.306;22.680;2023-08-24T12:24:44;3.80;;;2.00;;
70049;SDS011;57391;51.306;22.680;2023-08-24T12:27:25;5.20;;;2.10;;
70049;SDS011;57391;51.306;22.680;2023-08-24T12:29:53;4.80;;;2.00;;
70049;SDS011;57391;51.306;22.680;2023-08-24T12:32:21;3.00;;;1.80;;
70049;SDS011;57391;51.306;22.680;2023-08-24T12:34:51;6.00;;;2.10;;
70049;SDS011;57391;51.306;22.680;2023-08-24T12:37:18;3.20;;;2.00;;
70049;SDS011;57391;51.306;22.680;2023-08-24T12:39:45;4.70;;;2.00;;
70049;SDS011;57391;51.306;22.680;2023-08-24T12:42:12;4.60;;;2.20;;
70049;SDS011;57391;51.306;22.680;2023-08-24T12:44:39;3.50;;;1.90;;
70049;SDS011;57391;51.306;22.680;2023-08-24T12:47:06;3.30;;;1.70;;
70049;SDS011;57391;51.306;22.680;2023-08-24T12:49:32;4.60;;;1.90;;
70049;SDS011;57391;51.306;22.680;2023-08-24T12:51:59;5.80;;;2.20;;
70049;SDS011;57391;51.306;22.680;2023-08-24T12:54:26;4.30;;;2.00;;
70049;SDS011;57391;51.306;22.680;2023-08-24T12:56:53;4.50;;;1.80;;
70049;SDS011;57391;51.306;22.680;2023-08-24T12:59:19;4.40;;;1.80;;
70049;SDS011;57391;51.306;22.680;2023-08-24T13:01:46;5.50;;;1.80;;
70049;SDS011;57391;51.306;22.680;2023-08-24T13:04:13;4.10;;;2.00;;
70049;SDS011;57391;51.306;22.680;2023-08-24T13:06:40;5.60;;;2.20;;
70049;SDS011;57391;51.306;22.680;2023-08-24T13:09:07;6.30;;;2.00;;
70049;SDS011;57391;51.306;22.680;2023-08-24T13:11:34;3.90;;;1.80;;
70049;SDS011;57391;51.306;22.680;2023-08-24T13:14:01;5.10;;;1.80;;
70049;SDS011;57391;51.306;22.680;2023-08-24T13:16:27;4.20;;;2.10;;
70049;SDS011;57391;51.306;22.680;2023-08-24T13:18:54;3.00;;;1.70;;
70049;SDS011;57391;51.306;22.680;2023-08-24T13:21:21;3.40;;;1.60;;
70049;SDS011;57391;51.306;22.680;2023-08-24T13:23:49;4.80;;;1.80;;
70049;SDS011;57391;51.306;22.680;2023-08-24T13:26:20;4.40;;;1.90;;
70049;SDS011;57391;51.306;22.680;2023-08-24T13:28:48;5.50;;;2.10;;
70049;SDS011;57391;51.306;22.680;2023-08-24T13:31:15;4.20;;;1.70;;
70049;SDS011;57391;51.306;22.680;2023-08-24T13:33:42;4.80;;;1.80;;
70049;SDS011;57391;51.306;22.680;2023-08-24T13:36:09;5.30;;;1.90;;
70049;SDS011;57391;51.306;22.680;2023-08-24T13:38:36;4.70;;;1.70;;
70049;SDS011;57391;51.306;22.680;2023-08-24T13:41:03;3.00;;;1.70;;
70049;SDS011;57391;51.306;22.680;2023-08-24T13:43:32;4.70;;;1.90;;
70049;SDS011;57391;51.306;22.680;2023-08-24T13:45:59;3.10;;;1.50;;
70049;SDS011;57391;51.306;22.680;2023-08-24T13:48:26;5.00;;;1.80;;
70049;SDS011;57391;51.306;22.680;2023-08-24T13:50:53;3.60;;;1.70;;
70049;SDS011;57391;51.306;22.680;2023-08-24T13:53:20;4.20;;;1.80;;
70049;SDS011;57391;51.306;22.680;2023-08-24T13:55:47;5.40;;;2.00;;
70049;SDS011;57391;51.306;22.680;2023-08-24T13:58:14;3.80;;;1.70;;
70049;SDS011;57391;51.306;22.680;2023-08-24T14:00:41;3.60;;;1.70;;
70049;SDS011;57391;51.306;22.680;2023-08-24T14:03:07;4.00;;;2.00;;
70049;SDS011;57391;51.306;22.680;2023-08-24T14:05:38;4.10;;;2.00;;
70049;SDS011;57391;51.306;22.680;2023-08-24T14:08:06;3.00;;;1.60;;
70049;SDS011;57391;51.306;22.680;2023-08-24T14:10:34;3.90;;;2.00;;
70049;SDS011;57391;51.306;22.680;2023-08-24T14:13:01;4.40;;;1.60;;
70049;SDS011;57391;51.306;22.680;2023-08-24T14:15:28;4.00;;;1.90;;
70049;SDS011;57391;51.306;22.680;2023-08-24T14:17:55;5.20;;;2.00;;
70049;SDS011;57391;51.306;22.680;2023-08-24T14:20:21;3.60;;;1.90;;
70049;SDS011;57391;51.306;22.680;2023-08-24T14:22:48;6.30;;;2.70;;
70049;SDS011;57391;51.306;22.680;2023-08-24T14:25:15;6.50;;;2.80;;
70049;SDS011;57391;51.306;22.680;2023-08-24T14:27:43;5.30;;;2.10;;
70049;SDS011;57391;51.306;22.680;2023-08-24T14:30:10;3.90;;;1.80;;
70049;SDS011;57391;51.306;22.680;2023-08-24T14:32:37;3.10;;;1.50;;
70049;SDS011;57391;51.306;22.680;2023-08-24T14:35:04;3.60;;;1.80;;
70049;SDS011;57391;51.306;22.680;2023-08-24T14:37:31;3.70;;;1.60;;
70049;SDS011;57391;51.306;22.680;2023-08-24T14:40:00;4.40;;;1.80;;
70049;SDS011;57391;51.306;22.680;2023-08-24T14:42:27;3.70;;;1.90;;
70049;SDS011;57391;51.306;22.680;2023-08-24T14:44:53;6.60;;;2.10;;